Santana da Boa Vista, Brazil
Current Conditions -  °F | °C
As of 3:00 AM on Saturday 29 Nov 2014 (Local Time) from SBPK Reporting Station
Few Clouds Few Clouds  
Wind Chill: 66°   Ceiling: Unl
Heat Index: 66°   Visibility: 6mi
Dew Point: 61°   Wind: 7mph
Humidity: 83%   Direction: 80°E
Pressure: 29.97"   Gusts: NA
Location:  30.87°S, 53.12°W
Report Text: SBPK 290500Z 08006KT 9999 FEW030 19/16 Q1015
Loading
Personal Weather Stations






























Interactive Weather Map New forecast layout! Learn more

10-Day Weather Forecast

Advertisements
Track Severe Weather on mobile